sensor_id;sensor_type;location;lat;lon;timestamp;temperature;humidity
15241;DHT22;7723;52.170;9.978;2024-01-10T00:02:11;-8.00;99.90
15241;DHT22;7723;52.170;9.978;2024-01-10T00:04:38;-7.60;99.90
15241;DHT22;7723;52.170;9.978;2024-01-10T00:07:05;-7.50;99.90
15241;DHT22;7723;52.170;9.978;2024-01-10T00:09:33;-7.20;99.90
15241;DHT22;7723;52.170;9.978;2024-01-10T00:12:00;-7.20;99.90
15241;DHT22;7723;52.170;9.978;2024-01-10T00:14:27;-8.00;99.90
15241;DHT22;7723;52.170;9.978;2024-01-10T00:16:55;-8.00;99.90
15241;DHT22;7723;52.170;9.978;2024-01-10T00:19:22;-8.00;99.90
15241;DHT22;7723;52.170;9.978;2024-01-10T00:21:49;-8.00;99.90
15241;DHT22;7723;52.170;9.978;2024-01-10T00:24:16;-7.90;99.90
15241;DHT22;7723;52.170;9.978;2024-01-10T00:26:43;-7.60;99.90
15241;DHT22;7723;52.170;9.978;2024-01-10T00:29:11;-7.80;93.00
15241;DHT22;7723;52.170;9.978;2024-01-10T00:31:38;-7.80;46.60
15241;DHT22;7723;52.170;9.978;2024-01-10T00:34:07;-7.30;22.10
15241;DHT22;7723;52.170;9.978;2024-01-10T00:36:34;-7.80;15.70
15241;DHT22;7723;52.170;9.978;2024-01-10T00:39:01;-7.80;9.30
15241;DHT22;7723;52.170;9.978;2024-01-10T00:41:28;-7.80;17.40
15241;DHT22;7723;52.170;9.978;2024-01-10T00:43:56;-7.20;21.90
15241;DHT22;7723;52.170;9.978;2024-01-10T00:46:23;-7.80;39.40
15241;DHT22;7723;52.170;9.978;2024-01-10T00:48:50;-7.80;45.70
15241;DHT22;7723;52.170;9.978;2024-01-10T00:51:18;-7.80;61.50
15241;DHT22;7723;52.170;9.978;2024-01-10T00:53:45;-7.90;85.50
15241;DHT22;7723;52.170;9.978;2024-01-10T00:56:13;-7.70;99.90
15241;DHT22;7723;52.170;9.978;2024-01-10T00:58:40;-8.00;99.90
15241;DHT22;7723;52.170;9.978;2024-01-10T01:01:07;-7.90;99.90
15241;DHT22;7723;52.170;9.978;2024-01-10T01:03:34;-7.90;99.90
15241;DHT22;7723;52.170;9.978;2024-01-10T01:06:02;-7.60;99.90
15241;DHT22;7723;52.170;9.978;2024-01-10T01:08:31;-7.90;99.90
15241;DHT22;7723;52.170;9.978;2024-01-10T01:11:00;-8.00;99.90
15241;DHT22;7723;52.170;9.978;2024-01-10T01:13:27;-7.60;99.90
15241;DHT22;7723;52.170;9.978;2024-01-10T01:15:54;-8.00;99.90
15241;DHT22;7723;52.170;9.978;2024-01-10T01:18:21;-7.90;99.90
15241;DHT22;7723;52.170;9.978;2024-01-10T01:20:48;-7.40;99.90
15241;DHT22;7723;52.170;9.978;2024-01-10T01:23:15;-8.00;99.90
15241;DHT22;7723;52.170;9.978;2024-01-10T01:25:44;-8.00;99.90
15241;DHT22;7723;52.170;9.978;2024-01-10T01:28:11;-8.00;99.90
15241;DHT22;7723;52.170;9.978;2024-01-10T01:30:38;-8.00;99.90
15241;DHT22;7723;52.170;9.978;2024-01-10T01:33:06;-8.00;99.90
15241;DHT22;7723;52.170;9.978;2024-01-10T01:35:33;-7.90;99.90
15241;DHT22;7723;52.170;9.978;2024-01-10T01:38:00;-7.30;99.90
15241;DHT22;7723;52.170;9.978;2024-01-10T01:40:27;-8.00;99.90
15241;DHT22;7723;52.170;9.978;2024-01-10T01:42:55;-8.00;99.90
15241;DHT22;7723;52.170;9.978;2024-01-10T01:45:22;-7.90;99.90
15241;DHT22;7723;52.170;9.978;2024-01-10T01:47:50;-7.80;99.90
15241;DHT22;7723;52.170;9.978;2024-01-10T01:50:18;-7.80;99.90
15241;DHT22;7723;52.170;9.978;2024-01-10T01:52:45;-8.20;99.90
15241;DHT22;7723;52.170;9.978;2024-01-10T01:55:12;-8.00;99.90
15241;DHT22;7723;52.170;9.978;2024-01-10T01:57:39;-7.90;99.90
15241;DHT22;7723;52.170;9.978;2024-01-10T02:00:09;-7.90;99.90
15241;DHT22;7723;52.170;9.978;2024-01-10T02:02:37;-8.20;99.90
15241;DHT22;7723;52.170;9.978;2024-01-10T02:05:04;-8.30;99.90
15241;DHT22;7723;52.170;9.978;2024-01-10T02:07:32;-8.30;99.90
15241;DHT22;7723;52.170;9.978;2024-01-10T02:09:59;-8.10;99.90
15241;DHT22;7723;52.170;9.978;2024-01-10T02:12:26;-8.30;99.90
15241;DHT22;7723;52.170;9.978;2024-01-10T02:14:53;-8.40;99.90
15241;DHT22;7723;52.170;9.978;2024-01-10T02:17:23;-8.30;99.90
15241;DHT22;7723;52.170;9.978;2024-01-10T02:20:07;-8.30;99.90
15241;DHT22;7723;52.170;9.978;2024-01-10T02:22:34;-7.80;99.90
15241;DHT22;7723;52.170;9.978;2024-01-10T02:25:04;-7.30;99.90
15241;DHT22;7723;52.170;9.978;2024-01-10T02:27:31;-8.40;99.90
15241;DHT22;7723;52.170;9.978;2024-01-10T02:29:59;-8.10;99.90
15241;DHT22;7723;52.170;9.978;2024-01-10T02:32:28;-8.40;99.90
15241;DHT22;7723;52.170;9.978;2024-01-10T02:34:55;-7.90;99.90
15241;DHT22;7723;52.170;9.978;2024-01-10T02:37:22;-7.20;99.90
15241;DHT22;7723;52.170;9.978;2024-01-10T02:39:49;-8.50;99.90
15241;DHT22;7723;52.170;9.978;2024-01-10T02:42:18;-8.00;99.90
15241;DHT22;7723;52.170;9.978;2024-01-10T02:44:45;-8.40;99.90
15241;DHT22;7723;52.170;9.978;2024-01-10T02:47:12;-8.30;99.90
15241;DHT22;7723;52.170;9.978;2024-01-10T02:49:39;-7.60;99.90
15241;DHT22;7723;52.170;9.978;2024-01-10T02:52:06;-8.20;99.90
15241;DHT22;7723;52.170;9.978;2024-01-10T02:54:34;-7.40;99.90
15241;DHT22;7723;52.170;9.978;2024-01-10T02:57:01;-7.80;99.90
15241;DHT22;7723;52.170;9.978;2024-01-10T02:59:29;-8.40;99.90
15241;DHT22;7723;52.170;9.978;2024-01-10T03:01:56;-7.70;99.90
15241;DHT22;7723;52.170;9.978;2024-01-10T03:04:23;-8.20;99.90
15241;DHT22;7723;52.170;9.978;2024-01-10T03:06:50;-8.50;99.90
15241;DHT22;7723;52.170;9.978;2024-01-10T03:09:17;-8.20;99.90
15241;DHT22;7723;52.170;9.978;2024-01-10T03:11:44;-8.50;99.90
15241;DHT22;7723;52.170;9.978;2024-01-10T03:14:11;-8.50;99.90
15241;DHT22;7723;52.170;9.978;2024-01-10T03:16:40;-7.40;99.90
15241;DHT22;7723;52.170;9.978;2024-01-10T03:19:07;-8.10;99.90
15241;DHT22;7723;52.170;9.978;2024-01-10T03:21:34;-7.30;99.90
15241;DHT22;7723;52.170;9.978;2024-01-10T03:24:01;-8.30;99.90
15241;DHT22;7723;52.170;9.978;2024-01-10T03:26:28;-8.60;99.90
15241;DHT22;7723;52.170;9.978;2024-01-10T03:28:56;-8.10;99.90
15241;DHT22;7723;52.170;9.978;2024-01-10T03:31:25;-8.10;99.90
15241;DHT22;7723;52.170;9.978;2024-01-10T03:33:53;-7.40;99.90
15241;DHT22;7723;52.170;9.978;2024-01-10T03:36:20;-8.50;99.90
15241;DHT22;7723;52.170;9.978;2024-01-10T03:38:47;-7.30;99.90
15241;DHT22;7723;52.170;9.978;2024-01-10T03:41:14;-8.60;99.90
15241;DHT22;7723;52.170;9.978;2024-01-10T03:43:42;-7.90;99.90
15241;DHT22;7723;52.170;9.978;2024-01-10T03:46:09;-8.50;99.90
15241;DHT22;7723;52.170;9.978;2024-01-10T03:48:36;-8.30;99.90
15241;DHT22;7723;52.170;9.978;2024-01-10T03:51:07;-8.50;99.90
15241;DHT22;7723;52.170;9.978;2024-01-10T03:53:35;-8.60;99.90
15241;DHT22;7723;52.170;9.978;2024-01-10T03:56:04;-8.20;99.90
15241;DHT22;7723;52.170;9.978;2024-01-10T03:58:31;-8.60;99.90
15241;DHT22;7723;52.170;9.978;2024-01-10T04:00:59;-8.40;99.90
15241;DHT22;7723;52.170;9.978;2024-01-10T04:03:26;-8.70;99.90
15241;DHT22;7723;52.170;9.978;2024-01-10T04:05:53;-7.10;99.90
15241;DHT22;7723;52.170;9.978;2024-01-10T04:08:21;-7.50;99.90
15241;DHT22;7723;52.170;9.978;2024-01-10T04:10:48;-8.60;99.90
15241;DHT22;7723;52.170;9.978;2024-01-10T04:13:16;-8.60;99.90
15241;DHT22;7723;52.170;9.978;2024-01-10T04:15:43;-7.40;99.90
15241;DHT22;7723;52.170;9.978;2024-01-10T04:18:10;-8.70;99.90
15241;DHT22;7723;52.170;9.978;2024-01-10T04:20:37;-8.70;99.90
15241;DHT22;7723;52.170;9.978;2024-01-10T04:23:04;-8.80;99.90
15241;DHT22;7723;52.170;9.978;2024-01-10T04:25:32;-8.60;99.90
15241;DHT22;7723;52.170;9.978;2024-01-10T04:27:59;-8.40;99.90
15241;DHT22;7723;52.170;9.978;2024-01-10T04:30:27;-8.10;99.90
15241;DHT22;7723;52.170;9.978;2024-01-10T04:32:54;-8.70;99.90
15241;DHT22;7723;52.170;9.978;2024-01-10T04:35:21;-8.80;99.90
15241;DHT22;7723;52.170;9.978;2024-01-10T04:37:48;-8.70;99.90
15241;DHT22;7723;52.170;9.978;2024-01-10T04:40:15;-8.10;99.90
15241;DHT22;7723;52.170;9.978;2024-01-10T04:42:44;-7.90;99.90
15241;DHT22;7723;52.170;9.978;2024-01-10T04:45:12;-8.20;99.90
15241;DHT22;7723;52.170;9.978;2024-01-10T04:47:39;-8.70;99.90
15241;DHT22;7723;52.170;9.978;2024-01-10T04:50:06;-8.70;99.90
15241;DHT22;7723;52.170;9.978;2024-01-10T04:52:34;-8.70;99.90
15241;DHT22;7723;52.170;9.978;2024-01-10T04:55:01;-8.70;99.90
15241;DHT22;7723;52.170;9.978;2024-01-10T04:57:28;-8.80;99.90
15241;DHT22;7723;52.170;9.978;2024-01-10T04:59:57;-8.80;99.90
15241;DHT22;7723;52.170;9.978;2024-01-10T05:02:24;-8.40;99.90
15241;DHT22;7723;52.170;9.978;2024-01-10T05:04:51;-8.90;99.90
15241;DHT22;7723;52.170;9.978;2024-01-10T05:07:18;-8.60;99.90
15241;DHT22;7723;52.170;9.978;2024-01-10T05:09:45;-8.80;99.90
15241;DHT22;7723;52.170;9.978;2024-01-10T05:12:12;-8.60;99.90
15241;DHT22;7723;52.170;9.978;2024-01-10T05:14:39;-8.90;99.90
15241;DHT22;7723;52.170;9.978;2024-01-10T05:17:08;-8.10;99.90
15241;DHT22;7723;52.170;9.978;2024-01-10T05:19:35;-8.10;99.90
15241;DHT22;7723;52.170;9.978;2024-01-10T05:22:02;-8.80;99.90
15241;DHT22;7723;52.170;9.978;2024-01-10T05:24:30;-8.80;99.90
15241;DHT22;7723;52.170;9.978;2024-01-10T05:26:57;-8.70;99.90
15241;DHT22;7723;52.170;9.978;2024-01-10T05:29:24;-8.70;99.90
15241;DHT22;7723;52.170;9.978;2024-01-10T05:31:51;-8.80;99.90
15241;DHT22;7723;52.170;9.978;2024-01-10T05:34:20;-8.50;99.90
15241;DHT22;7723;52.170;9.978;2024-01-10T05:36:47;-8.10;99.90
15241;DHT22;7723;52.170;9.978;2024-01-10T05:39:15;-8.40;99.90
15241;DHT22;7723;52.170;9.978;2024-01-10T05:41:42;-8.70;99.90
15241;DHT22;7723;52.170;9.978;2024-01-10T05:44:10;-8.00;99.90
15241;DHT22;7723;52.170;9.978;2024-01-10T05:46:37;-8.00;99.90
15241;DHT22;7723;52.170;9.978;2024-01-10T05:49:04;-8.90;99.90
15241;DHT22;7723;52.170;9.978;2024-01-10T05:51:33;-8.90;99.90
15241;DHT22;7723;52.170;9.978;2024-01-10T05:54:00;-7.80;99.90
15241;DHT22;7723;52.170;9.978;2024-01-10T05:56:27;-7.60;99.90
15241;DHT22;7723;52.170;9.978;2024-01-10T05:58:54;-8.90;99.90
15241;DHT22;7723;52.170;9.978;2024-01-10T06:01:21;-9.00;99.90
15241;DHT22;7723;52.170;9.978;2024-01-10T06:03:48;-7.80;99.90
15241;DHT22;7723;52.170;9.978;2024-01-10T06:06:15;-8.70;99.90
15241;DHT22;7723;52.170;9.978;2024-01-10T06:08:43;-8.90;99.90
15241;DHT22;7723;52.170;9.978;2024-01-10T06:11:11;-8.00;99.90
15241;DHT22;7723;52.170;9.978;2024-01-10T06:13:38;-8.90;99.90
15241;DHT22;7723;52.170;9.978;2024-01-10T06:16:07;-8.60;99.90
15241;DHT22;7723;52.170;9.978;2024-01-10T06:18:37;-9.00;99.90
15241;DHT22;7723;52.170;9.978;2024-01-10T06:21:04;-9.10;99.90
15241;DHT22;7723;52.170;9.978;2024-01-10T06:23:31;-9.10;99.90
15241;DHT22;7723;52.170;9.978;2024-01-10T06:26:00;-8.80;99.90
15241;DHT22;7723;52.170;9.978;2024-01-10T06:28:27;-9.10;99.90
15241;DHT22;7723;52.170;9.978;2024-01-10T06:30:54;-9.10;99.90
15241;DHT22;7723;52.170;9.978;2024-01-10T06:33:21;-8.00;99.90
15241;DHT22;7723;52.170;9.978;2024-01-10T06:35:48;-9.10;99.90
15241;DHT22;7723;52.170;9.978;2024-01-10T06:38:15;-9.10;99.90
15241;DHT22;7723;52.170;9.978;2024-01-10T06:40:42;-8.90;99.90
15241;DHT22;7723;52.170;9.978;2024-01-10T06:43:11;-7.80;99.90
15241;DHT22;7723;52.170;9.978;2024-01-10T06:45:39;-9.10;99.90
15241;DHT22;7723;52.170;9.978;2024-01-10T06:48:08;-9.10;99.90
15241;DHT22;7723;52.170;9.978;2024-01-10T06:50:36;-9.00;99.90
15241;DHT22;7723;52.170;9.978;2024-01-10T06:53:03;-8.90;99.90
15241;DHT22;7723;52.170;9.978;2024-01-10T06:55:31;-9.20;99.90
15241;DHT22;7723;52.170;9.978;2024-01-10T06:57:58;-9.20;99.90
15241;DHT22;7723;52.170;9.978;2024-01-10T07:00:26;-9.20;99.90
15241;DHT22;7723;52.170;9.978;2024-01-10T07:02:53;-8.50;99.90
15241;DHT22;7723;52.170;9.978;2024-01-10T07:05:20;-9.10;99.90
15241;DHT22;7723;52.170;9.978;2024-01-10T07:07:47;-9.10;99.90
15241;DHT22;7723;52.170;9.978;2024-01-10T07:10:15;-8.20;99.90
15241;DHT22;7723;52.170;9.978;2024-01-10T07:12:42;-9.10;99.90
15241;DHT22;7723;52.170;9.978;2024-01-10T07:15:10;-8.10;99.90
15241;DHT22;7723;52.170;9.978;2024-01-10T07:17:39;-9.00;99.90
15241;DHT22;7723;52.170;9.978;2024-01-10T07:20:08;-9.00;99.90
15241;DHT22;7723;52.170;9.978;2024-01-10T07:22:37;-9.00;99.90
15241;DHT22;7723;52.170;9.978;2024-01-10T07:25:07;-7.80;99.90
15241;DHT22;7723;52.170;9.978;2024-01-10T07:27:35;-9.00;99.90
15241;DHT22;7723;52.170;9.978;2024-01-10T07:30:04;-9.10;99.90
15241;DHT22;7723;52.170;9.978;2024-01-10T07:32:36;-9.10;99.90
15241;DHT22;7723;52.170;9.978;2024-01-10T07:35:05;-9.10;99.90
15241;DHT22;7723;52.170;9.978;2024-01-10T07:37:35;-9.10;99.90
15241;DHT22;7723;52.170;9.978;2024-01-10T07:40:03;-9.10;99.90
15241;DHT22;7723;52.170;9.978;2024-01-10T07:42:31;-9.00;99.90
15241;DHT22;7723;52.170;9.978;2024-01-10T07:44:59;-8.50;99.90
15241;DHT22;7723;52.170;9.978;2024-01-10T07:47:30;-8.20;99.90
15241;DHT22;7723;52.170;9.978;2024-01-10T07:49:58;-8.40;99.90
15241;DHT22;7723;52.170;9.978;2024-01-10T07:52:26;-8.70;99.90
15241;DHT22;7723;52.170;9.978;2024-01-10T07:54:54;-8.50;99.90
15241;DHT22;7723;52.170;9.978;2024-01-10T07:57:21;-8.30;99.90
15241;DHT22;7723;52.170;9.978;2024-01-10T07:59:48;-7.50;99.90
15241;DHT22;7723;52.170;9.978;2024-01-10T08:02:15;-7.80;99.90
15241;DHT22;7723;52.170;9.978;2024-01-10T08:04:43;-7.60;99.90
15241;DHT22;7723;52.170;9.978;2024-01-10T08:07:10;-7.40;99.90
15241;DHT22;7723;52.170;9.978;2024-01-10T08:09:39;-7.10;99.90
15241;DHT22;7723;52.170;9.978;2024-01-10T08:12:07;-7.00;99.90
15241;DHT22;7723;52.170;9.978;2024-01-10T08:14:34;-6.90;99.90
15241;DHT22;7723;52.170;9.978;2024-01-10T08:17:03;-6.70;99.90
15241;DHT22;7723;52.170;9.978;2024-01-10T08:19:32;-6.50;99.90
15241;DHT22;7723;52.170;9.978;2024-01-10T08:22:01;-6.40;99.90
15241;DHT22;7723;52.170;9.978;2024-01-10T08:24:29;-6.30;99.90
15241;DHT22;7723;52.170;9.978;2024-01-10T08:26:57;-6.10;99.90
15241;DHT22;7723;52.170;9.978;2024-01-10T08:29:24;-5.90;99.90
15241;DHT22;7723;52.170;9.978;2024-01-10T08:31:56;-6.10;99.90
15241;DHT22;7723;52.170;9.978;2024-01-10T08:34:23;-5.90;90.40
15241;DHT22;7723;52.170;9.978;2024-01-10T08:36:50;-5.70;44.00
15241;DHT22;7723;52.170;9.978;2024-01-10T08:39:18;-5.60;38.70
15241;DHT22;7723;52.170;9.978;2024-01-10T08:41:47;-5.40;1.00
15241;DHT22;7723;52.170;9.978;2024-01-10T08:44:16;-5.20;1.00
15241;DHT22;7723;52.170;9.978;2024-01-10T08:46:43;-4.70;1.00
15241;DHT22;7723;52.170;9.978;2024-01-10T08:49:10;-5.10;1.00
15241;DHT22;7723;52.170;9.978;2024-01-10T08:51:37;-4.80;1.00
15241;DHT22;7723;52.170;9.978;2024-01-10T08:54:06;-4.80;99.90
15241;DHT22;7723;52.170;9.978;2024-01-10T08:56:34;-4.90;99.90
15241;DHT22;7723;52.170;9.978;2024-01-10T08:59:01;-4.70;99.90
15241;DHT22;7723;52.170;9.978;2024-01-10T09:01:31;-5.00;1.00
15241;DHT22;7723;52.170;9.978;2024-01-10T09:03:58;-5.00;99.90
15241;DHT22;7723;52.170;9.978;2024-01-10T09:06:25;-5.10;1.00
15241;DHT22;7723;52.170;9.978;2024-01-10T09:08:52;-5.30;1.00
15241;DHT22;7723;52.170;9.978;2024-01-10T09:11:19;-5.00;1.00
15241;DHT22;7723;52.170;9.978;2024-01-10T09:13:46;-4.90;99.90
15241;DHT22;7723;52.170;9.978;2024-01-10T09:16:13;-4.70;1.00
15241;DHT22;7723;52.170;9.978;2024-01-10T09:18:41;-4.80;1.00
15241;DHT22;7723;52.170;9.978;2024-01-10T09:21:08;-5.00;99.90
15241;DHT22;7723;52.170;9.978;2024-01-10T09:23:35;-4.90;1.00
15241;DHT22;7723;52.170;9.978;2024-01-10T09:26:03;-4.70;99.90
15241;DHT22;7723;52.170;9.978;2024-01-10T09:28:31;-4.50;99.90
15241;DHT22;7723;52.170;9.978;2024-01-10T09:30:58;-4.40;1.00
15241;DHT22;7723;52.170;9.978;2024-01-10T09:33:25;-4.30;99.90
15241;DHT22;7723;52.170;9.978;2024-01-10T09:35:54;-4.10;99.90
15241;DHT22;7723;52.170;9.978;2024-01-10T09:38:21;-4.20;1.00
15241;DHT22;7723;52.170;9.978;2024-01-10T09:40:48;-3.80;1.00
15241;DHT22;7723;52.170;9.978;2024-01-10T09:43:15;-3.60;99.90
15241;DHT22;7723;52.170;9.978;2024-01-10T09:45:46;-3.80;1.00
15241;DHT22;7723;52.170;9.978;2024-01-10T09:48:15;-4.20;1.00
15241;DHT22;7723;52.170;9.978;2024-01-10T09:50:42;-4.00;1.00
15241;DHT22;7723;52.170;9.978;2024-01-10T09:53:17;-4.10;1.00
15241;DHT22;7723;52.170;9.978;2024-01-10T09:55:49;-4.30;1.00
15241;DHT22;7723;52.170;9.978;2024-01-10T09:58:16;-4.00;1.00
15241;DHT22;7723;52.170;9.978;2024-01-10T10:00:44;-3.80;99.90
15241;DHT22;7723;52.170;9.978;2024-01-10T10:03:11;-4.00;1.00
15241;DHT22;7723;52.170;9.978;2024-01-10T10:05:38;-4.00;1.00
15241;DHT22;7723;52.170;9.978;2024-01-10T10:08:11;-4.40;92.50
15241;DHT22;7723;52.170;9.978;2024-01-10T10:10:39;-4.60;99.90
15241;DHT22;7723;52.170;9.978;2024-01-10T10:13:10;-4.50;99.90
15241;DHT22;7723;52.170;9.978;2024-01-10T10:15:57;-4.60;1.00
15241;DHT22;7723;52.170;9.978;2024-01-10T10:18:25;-5.00;1.00
15241;DHT22;7723;52.170;9.978;2024-01-10T10:21:06;-5.20;1.00
15241;DHT22;7723;52.170;9.978;2024-01-10T10:23:34;-5.30;1.00
15241;DHT22;7723;52.170;9.978;2024-01-10T10:26:10;-5.60;1.00
15241;DHT22;7723;52.170;9.978;2024-01-10T10:28:40;-5.70;1.00
15241;DHT22;7723;52.170;9.978;2024-01-10T10:31:08;-5.70;97.50
15241;DHT22;7723;52.170;9.978;2024-01-10T10:33:35;-5.70;1.00
15241;DHT22;7723;52.170;9.978;2024-01-10T10:36:03;-5.50;1.00
15241;DHT22;7723;52.170;9.978;2024-01-10T10:38:31;-5.60;1.00
15241;DHT22;7723;52.170;9.978;2024-01-10T10:41:06;-5.50;1.00
15241;DHT22;7723;52.170;9.978;2024-01-10T10:43:37;-5.50;1.00
15241;DHT22;7723;52.170;9.978;2024-01-10T10:46:05;-5.30;99.90
15241;DHT22;7723;52.170;9.978;2024-01-10T10:48:33;-5.60;1.00
15241;DHT22;7723;52.170;9.978;2024-01-10T10:51:05;-5.60;99.90
15241;DHT22;7723;52.170;9.978;2024-01-10T10:53:34;-5.70;1.00
15241;DHT22;7723;52.170;9.978;2024-01-10T10:56:03;-5.40;1.00
15241;DHT22;7723;52.170;9.978;2024-01-10T10:58:39;-5.50;1.00
15241;DHT22;7723;52.170;9.978;2024-01-10T11:01:08;-5.40;1.00
15241;DHT22;7723;52.170;9.978;2024-01-10T11:03:36;-5.30;1.00
15241;DHT22;7723;52.170;9.978;2024-01-10T11:06:04;-5.30;1.00
15241;DHT22;7723;52.170;9.978;2024-01-10T11:08:35;-5.20;1.00
15241;DHT22;7723;52.170;9.978;2024-01-10T11:11:06;-5.20;1.00
15241;DHT22;7723;52.170;9.978;2024-01-10T11:14:01;-5.30;99.90
15241;DHT22;7723;52.170;9.978;2024-01-10T11:16:47;-5.20;1.00
15241;DHT22;7723;52.170;9.978;2024-01-10T11:19:43;-5.20;1.00
15241;DHT22;7723;52.170;9.978;2024-01-10T11:22:28;-5.10;99.90
15241;DHT22;7723;52.170;9.978;2024-01-10T11:24:59;-5.10;99.90
15241;DHT22;7723;52.170;9.978;2024-01-10T11:27:26;-5.00;99.90
15241;DHT22;7723;52.170;9.978;2024-01-10T11:29:55;-5.10;1.00
15241;DHT22;7723;52.170;9.978;2024-01-10T11:32:23;-4.70;1.00
15241;DHT22;7723;52.170;9.978;2024-01-10T11:34:54;-4.80;1.00
15241;DHT22;7723;52.170;9.978;2024-01-10T11:37:22;-5.00;1.00
15241;DHT22;7723;52.170;9.978;2024-01-10T11:39:51;-4.90;1.00
15241;DHT22;7723;52.170;9.978;2024-01-10T11:42:23;-4.80;11.00
15241;DHT22;7723;52.170;9.978;2024-01-10T11:44:51;-4.70;1.00
15241;DHT22;7723;52.170;9.978;2024-01-10T11:47:21;-4.80;99.90
15241;DHT22;7723;52.170;9.978;2024-01-10T11:49:55;-4.80;99.90
15241;DHT22;7723;52.170;9.978;2024-01-10T11:52:23;-4.70;99.90
15241;DHT22;7723;52.170;9.978;2024-01-10T11:54:50;-4.70;45.70
15241;DHT22;7723;52.170;9.978;2024-01-10T11:57:21;-4.60;99.90
15241;DHT22;7723;52.170;9.978;2024-01-10T11:59:51;-4.60;99.90
15241;DHT22;7723;52.170;9.978;2024-01-10T12:02:21;-4.00;99.90
15241;DHT22;7723;52.170;9.978;2024-01-10T12:04:49;-4.50;99.90
15241;DHT22;7723;52.170;9.978;2024-01-10T12:07:18;-4.50;87.20
15241;DHT22;7723;52.170;9.978;2024-01-10T12:09:45;-4.50;1.00
15241;DHT22;7723;52.170;9.978;2024-01-10T12:12:13;-4.50;1.00
15241;DHT22;7723;52.170;9.978;2024-01-10T12:14:40;-4.40;1.00
15241;DHT22;7723;52.170;9.978;2024-01-10T12:17:09;-4.40;1.00
15241;DHT22;7723;52.170;9.978;2024-01-10T12:19:37;-4.40;1.00
15241;DHT22;7723;52.170;9.978;2024-01-10T12:22:05;-4.20;1.00
15241;DHT22;7723;52.170;9.978;2024-01-10T12:24:32;-4.40;1.00
15241;DHT22;7723;52.170;9.978;2024-01-10T12:26:59;-4.30;1.00
15241;DHT22;7723;52.170;9.978;2024-01-10T12:29:25;-4.30;1.00
15241;DHT22;7723;52.170;9.978;2024-01-10T12:31:53;-4.20;1.00
15241;DHT22;7723;52.170;9.978;2024-01-10T12:34:20;-4.20;1.00
15241;DHT22;7723;52.170;9.978;2024-01-10T12:36:54;-4.10;1.00
15241;DHT22;7723;52.170;9.978;2024-01-10T12:39:22;-3.90;1.00
15241;DHT22;7723;52.170;9.978;2024-01-10T12:41:51;-3.40;99.90
15241;DHT22;7723;52.170;9.978;2024-01-10T12:44:18;-4.00;99.90
15241;DHT22;7723;52.170;9.978;2024-01-10T12:46:51;-3.80;99.90
15241;DHT22;7723;52.170;9.978;2024-01-10T12:49:19;-3.80;99.90
15241;DHT22;7723;52.170;9.978;2024-01-10T12:51:47;-3.60;1.00
15241;DHT22;7723;52.170;9.978;2024-01-10T12:54:15;-3.80;1.00
15241;DHT22;7723;52.170;9.978;2024-01-10T12:56:43;-3.70;99.90
15241;DHT22;7723;52.170;9.978;2024-01-10T12:59:11;-3.70;99.90
15241;DHT22;7723;52.170;9.978;2024-01-10T13:01:39;-3.70;36.50
15241;DHT22;7723;52.170;9.978;2024-01-10T13:04:07;-3.70;99.90
15241;DHT22;7723;52.170;9.978;2024-01-10T13:06:34;-3.70;99.90
15241;DHT22;7723;52.170;9.978;2024-01-10T13:09:01;-3.70;99.90
15241;DHT22;7723;52.170;9.978;2024-01-10T13:11:30;-3.60;99.90
15241;DHT22;7723;52.170;9.978;2024-01-10T13:13:57;-3.60;99.90
15241;DHT22;7723;52.170;9.978;2024-01-10T13:16:26;-3.60;99.90
15241;DHT22;7723;52.170;9.978;2024-01-10T13:18:53;-3.60;1.00
15241;DHT22;7723;52.170;9.978;2024-01-10T13:21:22;-3.50;1.00
15241;DHT22;7723;52.170;9.978;2024-01-10T13:23:50;-3.50;1.00
15241;DHT22;7723;52.170;9.978;2024-01-10T13:26:17;-3.40;1.00
15241;DHT22;7723;52.170;9.978;2024-01-10T13:28:45;-3.30;1.00
15241;DHT22;7723;52.170;9.978;2024-01-10T13:31:12;-3.50;1.00
15241;DHT22;7723;52.170;9.978;2024-01-10T13:33:41;-3.50;1.00
15241;DHT22;7723;52.170;9.978;2024-01-10T13:36:08;-3.60;99.90
15241;DHT22;7723;52.170;9.978;2024-01-10T13:38:36;-3.40;99.90
15241;DHT22;7723;52.170;9.978;2024-01-10T13:41:03;-3.40;99.90
15241;DHT22;7723;52.170;9.978;2024-01-10T13:43:31;-3.40;99.90
15241;DHT22;7723;52.170;9.978;2024-01-10T13:46:00;-3.40;99.90
15241;DHT22;7723;52.170;9.978;2024-01-10T13:48:28;-3.40;99.90
15241;DHT22;7723;52.170;9.978;2024-01-10T13:50:56;-3.40;99.90
15241;DHT22;7723;52.170;9.978;2024-01-10T13:53:23;-3.40;99.90
15241;DHT22;7723;52.170;9.978;2024-01-10T13:55:50;-3.40;99.90
15241;DHT22;7723;52.170;9.978;2024-01-10T13:58:17;-3.30;99.90
15241;DHT22;7723;52.170;9.978;2024-01-10T14:00:45;-3.40;99.90
15241;DHT22;7723;52.170;9.978;2024-01-10T14:03:13;-3.50;99.90
15241;DHT22;7723;52.170;9.978;2024-01-10T14:05:41;-3.40;1.00
15241;DHT22;7723;52.170;9.978;2024-01-10T14:08:09;-3.40;1.00
15241;DHT22;7723;52.170;9.978;2024-01-10T14:10:36;-3.40;1.00
15241;DHT22;7723;52.170;9.978;2024-01-10T14:13:04;-3.30;7.80
15241;DHT22;7723;52.170;9.978;2024-01-10T14:15:32;-3.10;1.00
15241;DHT22;7723;52.170;9.978;2024-01-10T14:17:59;-3.40;1.00
15241;DHT22;7723;52.170;9.978;2024-01-10T14:20:28;-3.40;1.00
15241;DHT22;7723;52.170;9.978;2024-01-10T14:22:55;-2.90;8.70
15241;DHT22;7723;52.170;9.978;2024-01-10T14:25:22;-3.40;52.30
15241;DHT22;7723;52.170;9.978;2024-01-10T14:27:49;-3.50;99.90
15241;DHT22;7723;52.170;9.978;2024-01-10T14:30:17;-3.50;99.90
15241;DHT22;7723;52.170;9.978;2024-01-10T14:32:45;-3.40;99.90
15241;DHT22;7723;52.170;9.978;2024-01-10T14:35:13;-3.50;99.90
15241;DHT22;7723;52.170;9.978;2024-01-10T14:37:42;-3.50;99.90
15241;DHT22;7723;52.170;9.978;2024-01-10T14:40:11;-3.30;99.90
15241;DHT22;7723;52.170;9.978;2024-01-10T14:42:38;-3.50;99.90
15241;DHT22;7723;52.170;9.978;2024-01-10T14:45:06;-3.40;1.00
15241;DHT22;7723;52.170;9.978;2024-01-10T14:47:34;-3.60;1.00
15241;DHT22;7723;52.170;9.978;2024-01-10T14:50:02;-3.60;1.00
15241;DHT22;7723;52.170;9.978;2024-01-10T14:52:30;-3.70;1.00
15241;DHT22;7723;52.170;9.978;2024-01-10T14:54:59;-3.70;99.90
15241;DHT22;7723;52.170;9.978;2024-01-10T14:57:26;-3.70;99.90
15241;DHT22;7723;52.170;9.978;2024-01-10T14:59:53;-3.80;99.90
15241;DHT22;7723;52.170;9.978;2024-01-10T15:02:19;-3.60;1.00
15241;DHT22;7723;52.170;9.978;2024-01-10T15:04:46;-3.80;1.00
15241;DHT22;7723;52.170;9.978;2024-01-10T15:07:13;-3.80;1.00
15241;DHT22;7723;52.170;9.978;2024-01-10T15:09:42;-3.90;17.30
15241;DHT22;7723;52.170;9.978;2024-01-10T15:12:11;-3.90;99.90
15241;DHT22;7723;52.170;9.978;2024-01-10T15:14:38;-3.80;99.90
15241;DHT22;7723;52.170;9.978;2024-01-10T15:17:06;-4.00;99.90
15241;DHT22;7723;52.170;9.978;2024-01-10T15:19:34;-4.00;1.00
15241;DHT22;7723;52.170;9.978;2024-01-10T15:22:02;-4.00;1.00
15241;DHT22;7723;52.170;9.978;2024-01-10T15:24:29;-4.10;59.70
15241;DHT22;7723;52.170;9.978;2024-01-10T15:26:56;-4.20;99.90
15241;DHT22;7723;52.170;9.978;2024-01-10T15:29:28;-4.20;1.00
15241;DHT22;7723;52.170;9.978;2024-01-10T15:31:55;-4.30;1.00
15241;DHT22;7723;52.170;9.978;2024-01-10T15:34:23;-4.40;25.30
15241;DHT22;7723;52.170;9.978;2024-01-10T15:36:51;-4.40;1.00
15241;DHT22;7723;52.170;9.978;2024-01-10T15:39:18;-4.50;1.00
15241;DHT22;7723;52.170;9.978;2024-01-10T15:41:47;-4.50;1.00
15241;DHT22;7723;52.170;9.978;2024-01-10T15:44:14;-4.50;99.90
15241;DHT22;7723;52.170;9.978;2024-01-10T15:46:43;-4.50;97.50
15241;DHT22;7723;52.170;9.978;2024-01-10T15:49:11;-4.60;99.90
15241;DHT22;7723;52.170;9.978;2024-01-10T15:51:38;-4.60;1.00
15241;DHT22;7723;52.170;9.978;2024-01-10T15:54:06;-4.70;1.00
15241;DHT22;7723;52.170;9.978;2024-01-10T15:56:33;-4.70;1.00